UAL923 KLAX-EGLL
Flight info
| Callsign | UAL923 |
|---|---|
| Flight time | N/A |
| Altitude | 37000 |
| Route | OSHNN1 BEALE Q842 WINEN DCT MLF J107 DPR/N0479F390 DCT KP09A DCT HML DCT 55N090W 60N080W DCT TEFFO DCT BERUS/M083F410 DCT EMBOK DCT 63N050W 6230N04000W 61N030W 59N020W DCT AGORI/N0479F410 DCT OSBOX DCT MIMKU DCT KELLY L10 WAL UY53 NUGRA |
| Aircraft | B772/H-SDE2E3FGHIJ5LORVWXY/LB1D1 |
Departure
| Time | 2026-04-26 03:56 |
|---|---|
| Airport | Los Angeles International Airport (KLAX) |
Arrival
| Time | N/A |
|---|---|
| Airport | London Heathrow Airport (EGLL) |
| Time | Latitude | Longitude | Altitude | Speed | Heading |
|---|---|---|---|---|---|
| 2026-04-26 03:37 | 33.94033 | -118.39986 | 98 ft | 0 kts | 49° |
| 2026-04-26 03:46 | 33.94021 | -118.40002 | 98 ft | 4 kts | 49° |
| 2026-04-26 03:46 | 33.94004 | -118.40026 | 97 ft | 2 kts | 49° |
| 2026-04-26 03:47 | 33.93967 | -118.40064 | 96 ft | 4 kts | 39° |
| 2026-04-26 03:47 | 33.93953 | -118.40085 | 99 ft | 2 kts | 82° |
| 2026-04-26 03:47 | 33.93950 | -118.40113 | 97 ft | 4 kts | 82° |
| 2026-04-26 03:47 | 33.93947 | -118.40133 | 98 ft | 0 kts | 82° |
| 2026-04-26 03:50 | 33.93942 | -118.40067 | 97 ft | 13 kts | 118° |
| 2026-04-26 03:50 | 33.93893 | -118.40037 | 102 ft | 5 kts | 141° |
| 2026-04-26 03:51 | 33.93882 | -118.39985 | 104 ft | 11 kts | 91° |
| 2026-04-26 03:51 | 33.93895 | -118.39854 | 101 ft | 18 kts | 83° |
| 2026-04-26 03:51 | 33.93909 | -118.39707 | 101 ft | 18 kts | 84° |
| 2026-04-26 03:51 | 33.93923 | -118.39560 | 99 ft | 18 kts | 82° |
| 2026-04-26 03:52 | 33.93939 | -118.39412 | 101 ft | 18 kts | 82° |
| 2026-04-26 03:52 | 33.93955 | -118.39265 | 101 ft | 18 kts | 82° |
| 2026-04-26 03:52 | 33.93970 | -118.39118 | 99 ft | 18 kts | 85° |
| 2026-04-26 03:52 | 33.93984 | -118.38971 | 100 ft | 18 kts | 83° |
| 2026-04-26 03:53 | 33.93999 | -118.38826 | 101 ft | 18 kts | 83° |
| 2026-04-26 03:53 | 33.94014 | -118.38679 | 102 ft | 18 kts | 83° |
| 2026-04-26 03:53 | 33.94028 | -118.38532 | 100 ft | 18 kts | 83° |
| 2026-04-26 03:53 | 33.94043 | -118.38384 | 101 ft | 18 kts | 83° |
| 2026-04-26 03:54 | 33.94059 | -118.38237 | 99 ft | 18 kts | 83° |
| 2026-04-26 03:54 | 33.94075 | -118.38083 | 97 ft | 18 kts | 83° |
| 2026-04-26 03:54 | 33.94040 | -118.38001 | 98 ft | 12 kts | 166° |
| 2026-04-26 03:54 | 33.93991 | -118.38005 | 99 ft | 5 kts | 217° |
| 2026-04-26 03:55 | 33.93979 | -118.38080 | 98 ft | 25 kts | 262° |
| 2026-04-26 03:55 | 33.93930 | -118.38553 | 103 ft | 90 kts | 263° |
| 2026-04-26 03:55 | 33.93826 | -118.39562 | 103 ft | 150 kts | 263° |
| 2026-04-26 03:55 | 33.93679 | -118.40914 | 571 ft | 163 kts | 261° |
| 2026-04-26 03:56 | 33.93574 | -118.42251 | 1365 ft | 158 kts | 270° |
| 2026-04-26 03:56 | 33.93493 | -118.43586 | 1867 ft | 172 kts | 262° |
| 2026-04-26 03:56 | 33.93308 | -118.45094 | 2065 ft | 191 kts | 262° |
| 2026-04-26 03:56 | 33.92991 | -118.46727 | 2152 ft | 212 kts | 240° |
| 2026-04-26 03:57 | 33.91924 | -118.48034 | 2322 ft | 229 kts | 222° |
| 2026-04-26 03:57 | 33.90726 | -118.49406 | 2731 ft | 241 kts | 230° |
| 2026-04-26 03:57 | 33.89627 | -118.50980 | 3333 ft | 247 kts | 233° |
| 2026-04-26 03:57 | 33.88531 | -118.52602 | 4012 ft | 251 kts | 233° |
| 2026-04-26 03:58 | 33.87412 | -118.54234 | 4724 ft | 253 kts | 232° |
| 2026-04-26 03:58 | 33.86091 | -118.55627 | 5254 ft | 261 kts | 207° |
| 2026-04-26 03:58 | 33.84310 | -118.55992 | 5904 ft | 270 kts | 178° |
| 2026-04-26 03:58 | 33.82461 | -118.55553 | 6481 ft | 274 kts | 171° |
| 2026-04-26 03:59 | 33.80592 | -118.55039 | 7113 ft | 277 kts | 171° |
| 2026-04-26 03:59 | 33.78723 | -118.54527 | 7896 ft | 275 kts | 171° |
| 2026-04-26 03:59 | 33.76838 | -118.54013 | 8528 ft | 279 kts | 172° |
| 2026-04-26 03:59 | 33.74936 | -118.53496 | 9236 ft | 280 kts | 172° |
| 2026-04-26 04:00 | 33.73023 | -118.52978 | 9913 ft | 283 kts | 172° |
| 2026-04-26 04:00 | 33.71095 | -118.52370 | 10290 ft | 295 kts | 162° |
| 2026-04-26 04:00 | 33.69389 | -118.50813 | 10433 ft | 328 kts | 130° |
| 2026-04-26 04:00 | 33.68373 | -118.48265 | 10601 ft | 349 kts | 110° |
| 2026-04-26 04:01 | 33.67652 | -118.45415 | 11036 ft | 361 kts | 110° |
| 2026-04-26 04:01 | 33.66877 | -118.42554 | 11681 ft | 369 kts | 111° |
| 2026-04-26 04:01 | 33.66033 | -118.39625 | 12534 ft | 372 kts | 112° |
| 2026-04-26 04:01 | 33.65166 | -118.36694 | 13160 ft | 375 kts | 111° |
| 2026-04-26 04:02 | 33.64393 | -118.33746 | 14189 ft | 372 kts | 104° |
| 2026-04-26 04:02 | 33.64297 | -118.30582 | 14505 ft | 387 kts | 88° |
| 2026-04-26 04:02 | 33.64447 | -118.27317 | 14957 ft | 396 kts | 90° |
| 2026-04-26 04:02 | 33.64486 | -118.23990 | 15623 ft | 400 kts | 92° |
| 2026-04-26 04:03 | 33.64618 | -118.20659 | 16202 ft | 401 kts | 79° |
| 2026-04-26 04:03 | 33.65667 | -118.17532 | 16689 ft | 409 kts | 54° |
| 2026-04-26 04:03 | 33.67574 | -118.15029 | 17378 ft | 405 kts | 35° |
| 2026-04-26 04:03 | 33.69832 | -118.13013 | 17961 ft | 407 kts | 32° |
| 2026-04-26 04:04 | 33.72114 | -118.11020 | 18536 ft | 413 kts | 32° |
| 2026-04-26 04:04 | 33.74475 | -118.08950 | 19105 ft | 418 kts | 32° |
| 2026-04-26 04:04 | 33.76804 | -118.06892 | 19587 ft | 423 kts | 33° |
| 2026-04-26 04:04 | 33.79199 | -118.04762 | 19954 ft | 433 kts | 33° |
| 2026-04-26 04:05 | 33.81642 | -118.02574 | 20405 ft | 440 kts | 33° |
| 2026-04-26 04:05 | 33.84108 | -118.00356 | 20989 ft | 445 kts | 33° |
| 2026-04-26 04:05 | 33.86597 | -117.98114 | 21539 ft | 449 kts | 33° |
| 2026-04-26 04:05 | 33.89109 | -117.95851 | 22185 ft | 451 kts | 33° |
| 2026-04-26 04:06 | 33.91633 | -117.93573 | 22736 ft | 456 kts | 34° |